sensor_id;sensor_type;location;lat;lon;timestamp;P1;durP1;ratioP1;P2;durP2;ratioP2
4290;SDS011;2159;50.906;7.152;2023-05-07T00:01:13;4.37;;;2.70;;
4290;SDS011;2159;50.906;7.152;2023-05-07T00:03:40;3.30;;;3.10;;
4290;SDS011;2159;50.906;7.152;2023-05-07T00:06:08;2.87;;;2.60;;
4290;SDS011;2159;50.906;7.152;2023-05-07T00:08:38;3.80;;;2.73;;
4290;SDS011;2159;50.906;7.152;2023-05-07T00:11:06;13.00;;;3.00;;
4290;SDS011;2159;50.906;7.152;2023-05-07T00:13:34;4.13;;;2.70;;
4290;SDS011;2159;50.906;7.152;2023-05-07T00:16:02;3.10;;;2.50;;
4290;SDS011;2159;50.906;7.152;2023-05-07T00:18:30;2.90;;;2.70;;
4290;SDS011;2159;50.906;7.152;2023-05-07T00:20:58;8.37;;;3.20;;
4290;SDS011;2159;50.906;7.152;2023-05-07T00:23:25;3.33;;;3.00;;
4290;SDS011;2159;50.906;7.152;2023-05-07T00:25:53;3.03;;;2.83;;
4290;SDS011;2159;50.906;7.152;2023-05-07T00:28:20;2.90;;;2.70;;
4290;SDS011;2159;50.906;7.152;2023-05-07T00:30:49;3.70;;;3.40;;
4290;SDS011;2159;50.906;7.152;2023-05-07T00:33:16;11.97;;;8.20;;
4290;SDS011;2159;50.906;7.152;2023-05-07T00:35:44;21.97;;;13.30;;
4290;SDS011;2159;50.906;7.152;2023-05-07T00:38:11;17.00;;;10.10;;
4290;SDS011;2159;50.906;7.152;2023-05-07T00:40:39;20.00;;;12.30;;
4290;SDS011;2159;50.906;7.152;2023-05-07T00:43:07;37.47;;;17.97;;
4290;SDS011;2159;50.906;7.152;2023-05-07T00:45:35;22.67;;;14.60;;
4290;SDS011;2159;50.906;7.152;2023-05-07T00:48:04;5.67;;;4.80;;
4290;SDS011;2159;50.906;7.152;2023-05-07T00:50:31;4.73;;;4.23;;
4290;SDS011;2159;50.906;7.152;2023-05-07T00:52:59;5.93;;;3.70;;
4290;SDS011;2159;50.906;7.152;2023-05-07T00:55:27;4.83;;;3.20;;
4290;SDS011;2159;50.906;7.152;2023-05-07T00:57:55;7.17;;;2.80;;
4290;SDS011;2159;50.906;7.152;2023-05-07T01:00:22;3.00;;;2.80;;
4290;SDS011;2159;50.906;7.152;2023-05-07T01:02:51;2.83;;;2.63;;
4290;SDS011;2159;50.906;7.152;2023-05-07T01:05:21;2.70;;;2.50;;
4290;SDS011;2159;50.906;7.152;2023-05-07T01:07:51;3.43;;;2.87;;
4290;SDS011;2159;50.906;7.152;2023-05-07T01:10:19;5.93;;;2.63;;
4290;SDS011;2159;50.906;7.152;2023-05-07T01:12:47;3.20;;;2.90;;
4290;SDS011;2159;50.906;7.152;2023-05-07T01:15:15;6.10;;;2.80;;
4290;SDS011;2159;50.906;7.152;2023-05-07T01:17:43;5.80;;;2.33;;
4290;SDS011;2159;50.906;7.152;2023-05-07T01:20:11;4.37;;;2.77;;
4290;SDS011;2159;50.906;7.152;2023-05-07T01:22:41;3.10;;;2.73;;
4290;SDS011;2159;50.906;7.152;2023-05-07T01:25:10;5.97;;;2.80;;
4290;SDS011;2159;50.906;7.152;2023-05-07T01:27:37;2.80;;;2.60;;
4290;SDS011;2159;50.906;7.152;2023-05-07T01:30:05;2.80;;;2.60;;
4290;SDS011;2159;50.906;7.152;2023-05-07T01:32:34;3.23;;;2.50;;
4290;SDS011;2159;50.906;7.152;2023-05-07T01:35:03;3.80;;;2.67;;
4290;SDS011;2159;50.906;7.152;2023-05-07T01:37:32;2.70;;;2.60;;
4290;SDS011;2159;50.906;7.152;2023-05-07T01:40:02;2.77;;;2.50;;
4290;SDS011;2159;50.906;7.152;2023-05-07T01:42:30;3.07;;;2.53;;
4290;SDS011;2159;50.906;7.152;2023-05-07T01:44:58;2.83;;;2.63;;
4290;SDS011;2159;50.906;7.152;2023-05-07T01:47:26;2.53;;;2.43;;
4290;SDS011;2159;50.906;7.152;2023-05-07T01:49:53;5.33;;;2.50;;
4290;SDS011;2159;50.906;7.152;2023-05-07T01:52:21;2.90;;;2.53;;
4290;SDS011;2159;50.906;7.152;2023-05-07T01:54:49;2.70;;;2.60;;
4290;SDS011;2159;50.906;7.152;2023-05-07T01:57:18;6.60;;;2.80;;
4290;SDS011;2159;50.906;7.152;2023-05-07T01:59:45;3.60;;;2.40;;
4290;SDS011;2159;50.906;7.152;2023-05-07T02:02:12;4.33;;;3.30;;
4290;SDS011;2159;50.906;7.152;2023-05-07T02:04:40;3.03;;;2.80;;
4290;SDS011;2159;50.906;7.152;2023-05-07T02:07:07;2.90;;;2.60;;
4290;SDS011;2159;50.906;7.152;2023-05-07T02:09:35;4.73;;;2.23;;
4290;SDS011;2159;50.906;7.152;2023-05-07T02:12:03;2.70;;;2.50;;
4290;SDS011;2159;50.906;7.152;2023-05-07T02:14:32;8.43;;;2.30;;
4290;SDS011;2159;50.906;7.152;2023-05-07T02:16:59;2.67;;;2.47;;
4290;SDS011;2159;50.906;7.152;2023-05-07T02:19:27;2.47;;;2.27;;
4290;SDS011;2159;50.906;7.152;2023-05-07T02:21:54;3.30;;;3.00;;
4290;SDS011;2159;50.906;7.152;2023-05-07T02:24:22;4.50;;;2.80;;
4290;SDS011;2159;50.906;7.152;2023-05-07T02:26:49;2.90;;;2.70;;
4290;SDS011;2159;50.906;7.152;2023-05-07T02:29:17;4.73;;;2.67;;
4290;SDS011;2159;50.906;7.152;2023-05-07T02:31:45;2.90;;;2.50;;
4290;SDS011;2159;50.906;7.152;2023-05-07T02:34:13;2.63;;;2.37;;
4290;SDS011;2159;50.906;7.152;2023-05-07T02:36:40;2.70;;;2.50;;
4290;SDS011;2159;50.906;7.152;2023-05-07T02:39:08;2.83;;;2.60;;
4290;SDS011;2159;50.906;7.152;2023-05-07T02:41:36;2.70;;;2.50;;
4290;SDS011;2159;50.906;7.152;2023-05-07T02:44:03;2.60;;;2.50;;
4290;SDS011;2159;50.906;7.152;2023-05-07T02:46:31;2.60;;;2.40;;
4290;SDS011;2159;50.906;7.152;2023-05-07T02:48:59;3.37;;;2.40;;
4290;SDS011;2159;50.906;7.152;2023-05-07T02:51:27;2.80;;;2.60;;
4290;SDS011;2159;50.906;7.152;2023-05-07T02:53:54;9.63;;;2.93;;
4290;SDS011;2159;50.906;7.152;2023-05-07T02:56:22;3.07;;;2.80;;
4290;SDS011;2159;50.906;7.152;2023-05-07T02:58:49;5.47;;;2.90;;
4290;SDS011;2159;50.906;7.152;2023-05-07T03:01:17;3.70;;;3.23;;
4290;SDS011;2159;50.906;7.152;2023-05-07T03:03:44;2.90;;;2.70;;
4290;SDS011;2159;50.906;7.152;2023-05-07T03:06:13;8.03;;;3.00;;
4290;SDS011;2159;50.906;7.152;2023-05-07T03:08:41;3.07;;;2.87;;
4290;SDS011;2159;50.906;7.152;2023-05-07T03:11:09;3.10;;;2.60;;
4290;SDS011;2159;50.906;7.152;2023-05-07T03:13:36;3.67;;;2.97;;
4290;SDS011;2159;50.906;7.152;2023-05-07T03:16:04;5.20;;;3.10;;
4290;SDS011;2159;50.906;7.152;2023-05-07T03:18:31;3.10;;;2.80;;
4290;SDS011;2159;50.906;7.152;2023-05-07T03:20:59;5.00;;;2.87;;
4290;SDS011;2159;50.906;7.152;2023-05-07T03:23:28;3.80;;;2.90;;
4290;SDS011;2159;50.906;7.152;2023-05-07T03:25:55;3.03;;;2.80;;
4290;SDS011;2159;50.906;7.152;2023-05-07T03:28:23;2.90;;;2.60;;
4290;SDS011;2159;50.906;7.152;2023-05-07T03:30:50;5.60;;;2.80;;
4290;SDS011;2159;50.906;7.152;2023-05-07T03:33:18;2.37;;;2.17;;
4290;SDS011;2159;50.906;7.152;2023-05-07T03:35:45;4.50;;;2.30;;
4290;SDS011;2159;50.906;7.152;2023-05-07T03:38:12;2.70;;;2.50;;
4290;SDS011;2159;50.906;7.152;2023-05-07T03:40:41;4.13;;;2.50;;
4290;SDS011;2159;50.906;7.152;2023-05-07T03:43:09;2.97;;;2.77;;
4290;SDS011;2159;50.906;7.152;2023-05-07T03:45:36;3.10;;;2.50;;
4290;SDS011;2159;50.906;7.152;2023-05-07T03:48:04;3.03;;;2.70;;
4290;SDS011;2159;50.906;7.152;2023-05-07T03:50:31;3.27;;;2.97;;
4290;SDS011;2159;50.906;7.152;2023-05-07T03:52:59;3.40;;;2.80;;
4290;SDS011;2159;50.906;7.152;2023-05-07T03:55:26;4.03;;;2.70;;
4290;SDS011;2159;50.906;7.152;2023-05-07T03:57:56;3.20;;;2.90;;
4290;SDS011;2159;50.906;7.152;2023-05-07T04:00:23;3.10;;;2.80;;
4290;SDS011;2159;50.906;7.152;2023-05-07T04:02:51;2.60;;;2.40;;
4290;SDS011;2159;50.906;7.152;2023-05-07T04:05:18;3.63;;;2.90;;
4290;SDS011;2159;50.906;7.152;2023-05-07T04:07:46;2.90;;;2.70;;
4290;SDS011;2159;50.906;7.152;2023-05-07T04:10:13;2.90;;;2.47;;
4290;SDS011;2159;50.906;7.152;2023-05-07T04:12:41;3.00;;;2.80;;
4290;SDS011;2159;50.906;7.152;2023-05-07T04:15:10;2.77;;;2.57;;
4290;SDS011;2159;50.906;7.152;2023-05-07T04:17:37;2.60;;;2.40;;
4290;SDS011;2159;50.906;7.152;2023-05-07T04:20:05;3.33;;;2.90;;
4290;SDS011;2159;50.906;7.152;2023-05-07T04:22:33;5.50;;;2.70;;
4290;SDS011;2159;50.906;7.152;2023-05-07T04:25:01;2.60;;;2.40;;
4290;SDS011;2159;50.906;7.152;2023-05-07T04:27:28;7.13;;;2.53;;
4290;SDS011;2159;50.906;7.152;2023-05-07T04:29:56;2.73;;;2.63;;
4290;SDS011;2159;50.906;7.152;2023-05-07T04:32:25;2.60;;;2.40;;
4290;SDS011;2159;50.906;7.152;2023-05-07T04:34:52;2.70;;;2.47;;
4290;SDS011;2159;50.906;7.152;2023-05-07T04:37:20;4.73;;;2.60;;
4290;SDS011;2159;50.906;7.152;2023-05-07T04:39:47;7.27;;;2.70;;
4290;SDS011;2159;50.906;7.152;2023-05-07T04:42:15;2.97;;;2.77;;
4290;SDS011;2159;50.906;7.152;2023-05-07T04:44:43;2.70;;;2.60;;
4290;SDS011;2159;50.906;7.152;2023-05-07T04:47:11;3.43;;;2.57;;
4290;SDS011;2159;50.906;7.152;2023-05-07T04:49:40;4.00;;;2.40;;
4290;SDS011;2159;50.906;7.152;2023-05-07T04:52:07;2.47;;;2.37;;
4290;SDS011;2159;50.906;7.152;2023-05-07T04:54:34;4.40;;;2.60;;
4290;SDS011;2159;50.906;7.152;2023-05-07T04:57:03;2.47;;;2.37;;
4290;SDS011;2159;50.906;7.152;2023-05-07T04:59:30;2.90;;;2.60;;
4290;SDS011;2159;50.906;7.152;2023-05-07T05:01:59;7.30;;;2.70;;
4290;SDS011;2159;50.906;7.152;2023-05-07T05:04:27;3.17;;;2.67;;
4290;SDS011;2159;50.906;7.152;2023-05-07T05:06:56;3.13;;;2.93;;
4290;SDS011;2159;50.906;7.152;2023-05-07T05:09:23;2.60;;;2.40;;
4290;SDS011;2159;50.906;7.152;2023-05-07T05:11:51;2.93;;;2.67;;
4290;SDS011;2159;50.906;7.152;2023-05-07T05:14:18;2.63;;;2.23;;
4290;SDS011;2159;50.906;7.152;2023-05-07T05:16:46;3.63;;;2.40;;
4290;SDS011;2159;50.906;7.152;2023-05-07T05:19:13;3.20;;;2.40;;
4290;SDS011;2159;50.906;7.152;2023-05-07T05:21:41;2.60;;;2.27;;
4290;SDS011;2159;50.906;7.152;2023-05-07T05:24:10;2.83;;;2.53;;
4290;SDS011;2159;50.906;7.152;2023-05-07T05:26:37;3.13;;;2.43;;
4290;SDS011;2159;50.906;7.152;2023-05-07T05:29:05;2.80;;;2.60;;
4290;SDS011;2159;50.906;7.152;2023-05-07T05:31:33;2.90;;;2.67;;
4290;SDS011;2159;50.906;7.152;2023-05-07T05:34:01;19.80;;;2.50;;
4290;SDS011;2159;50.906;7.152;2023-05-07T05:36:29;3.70;;;3.00;;
4290;SDS011;2159;50.906;7.152;2023-05-07T05:38:57;3.10;;;2.70;;
4290;SDS011;2159;50.906;7.152;2023-05-07T05:41:26;3.90;;;2.77;;
4290;SDS011;2159;50.906;7.152;2023-05-07T05:43:53;2.73;;;2.53;;
4290;SDS011;2159;50.906;7.152;2023-05-07T05:46:21;3.43;;;3.00;;
4290;SDS011;2159;50.906;7.152;2023-05-07T05:48:49;3.67;;;2.63;;
4290;SDS011;2159;50.906;7.152;2023-05-07T05:51:16;4.00;;;2.57;;
4290;SDS011;2159;50.906;7.152;2023-05-07T05:53:43;2.77;;;2.57;;
4290;SDS011;2159;50.906;7.152;2023-05-07T05:56:11;2.90;;;2.50;;
4290;SDS011;2159;50.906;7.152;2023-05-07T05:58:40;2.60;;;2.43;;
4290;SDS011;2159;50.906;7.152;2023-05-07T06:01:07;2.83;;;2.50;;
4290;SDS011;2159;50.906;7.152;2023-05-07T06:03:35;2.20;;;2.10;;
4290;SDS011;2159;50.906;7.152;2023-05-07T06:06:02;3.70;;;2.23;;
4290;SDS011;2159;50.906;7.152;2023-05-07T06:08:30;2.60;;;2.40;;
4290;SDS011;2159;50.906;7.152;2023-05-07T06:10:57;2.90;;;2.37;;
4290;SDS011;2159;50.906;7.152;2023-05-07T06:13:25;7.50;;;2.50;;
4290;SDS011;2159;50.906;7.152;2023-05-07T06:15:54;2.43;;;2.23;;
4290;SDS011;2159;50.906;7.152;2023-05-07T06:18:22;4.60;;;2.40;;
4290;SDS011;2159;50.906;7.152;2023-05-07T06:20:49;2.60;;;2.40;;
4290;SDS011;2159;50.906;7.152;2023-05-07T06:23:17;4.00;;;2.33;;
4290;SDS011;2159;50.906;7.152;2023-05-07T06:25:47;4.53;;;2.60;;
4290;SDS011;2159;50.906;7.152;2023-05-07T06:28:15;3.03;;;2.57;;
4290;SDS011;2159;50.906;7.152;2023-05-07T06:30:42;2.50;;;2.40;;
4290;SDS011;2159;50.906;7.152;2023-05-07T06:33:11;2.60;;;2.50;;
4290;SDS011;2159;50.906;7.152;2023-05-07T06:35:38;4.50;;;2.70;;
4290;SDS011;2159;50.906;7.152;2023-05-07T06:38:06;2.57;;;2.40;;
4290;SDS011;2159;50.906;7.152;2023-05-07T06:40:33;3.20;;;2.40;;
4290;SDS011;2159;50.906;7.152;2023-05-07T06:43:01;2.80;;;2.60;;
4290;SDS011;2159;50.906;7.152;2023-05-07T06:45:28;2.80;;;2.60;;
4290;SDS011;2159;50.906;7.152;2023-05-07T06:47:55;2.47;;;2.27;;
4290;SDS011;2159;50.906;7.152;2023-05-07T06:50:24;2.43;;;2.30;;
4290;SDS011;2159;50.906;7.152;2023-05-07T06:52:52;2.33;;;2.17;;
4290;SDS011;2159;50.906;7.152;2023-05-07T06:55:19;3.50;;;2.43;;
4290;SDS011;2159;50.906;7.152;2023-05-07T06:57:47;2.10;;;2.00;;
4290;SDS011;2159;50.906;7.152;2023-05-07T07:00:14;2.37;;;2.27;;
4290;SDS011;2159;50.906;7.152;2023-05-07T07:02:42;2.93;;;1.80;;
4290;SDS011;2159;50.906;7.152;2023-05-07T07:05:10;3.93;;;2.37;;
4290;SDS011;2159;50.906;7.152;2023-05-07T07:07:38;2.67;;;2.47;;
4290;SDS011;2159;50.906;7.152;2023-05-07T07:10:06;4.30;;;2.27;;
4290;SDS011;2159;50.906;7.152;2023-05-07T07:12:34;2.17;;;1.97;;
4290;SDS011;2159;50.906;7.152;2023-05-07T07:15:02;2.50;;;2.30;;
4290;SDS011;2159;50.906;7.152;2023-05-07T07:17:29;2.80;;;2.10;;
4290;SDS011;2159;50.906;7.152;2023-05-07T07:19:57;3.83;;;1.90;;
4290;SDS011;2159;50.906;7.152;2023-05-07T07:22:24;3.10;;;2.20;;
4290;SDS011;2159;50.906;7.152;2023-05-07T07:24:53;2.33;;;2.13;;
4290;SDS011;2159;50.906;7.152;2023-05-07T07:27:20;3.33;;;2.20;;
4290;SDS011;2159;50.906;7.152;2023-05-07T07:29:48;2.47;;;2.27;;
4290;SDS011;2159;50.906;7.152;2023-05-07T07:32:15;7.77;;;2.10;;
4290;SDS011;2159;50.906;7.152;2023-05-07T07:34:42;2.13;;;2.00;;
4290;SDS011;2159;50.906;7.152;2023-05-07T07:37:10;3.43;;;2.50;;
4290;SDS011;2159;50.906;7.152;2023-05-07T07:39:37;3.87;;;2.70;;
4290;SDS011;2159;50.906;7.152;2023-05-07T07:42:06;2.50;;;2.20;;
4290;SDS011;2159;50.906;7.152;2023-05-07T07:44:34;3.57;;;2.20;;
4290;SDS011;2159;50.906;7.152;2023-05-07T07:47:01;5.40;;;2.37;;
4290;SDS011;2159;50.906;7.152;2023-05-07T07:49:29;3.00;;;2.17;;
4290;SDS011;2159;50.906;7.152;2023-05-07T07:51:56;2.13;;;2.03;;
4290;SDS011;2159;50.906;7.152;2023-05-07T07:54:25;2.40;;;2.20;;
4290;SDS011;2159;50.906;7.152;2023-05-07T07:56:53;2.67;;;2.40;;
4290;SDS011;2159;50.906;7.152;2023-05-07T07:59:21;2.63;;;2.00;;
4290;SDS011;2159;50.906;7.152;2023-05-07T08:01:49;2.40;;;2.30;;
4290;SDS011;2159;50.906;7.152;2023-05-07T08:04:21;2.60;;;2.10;;
4290;SDS011;2159;50.906;7.152;2023-05-07T08:06:48;2.60;;;2.40;;
4290;SDS011;2159;50.906;7.152;2023-05-07T08:09:16;2.13;;;2.03;;
4290;SDS011;2159;50.906;7.152;2023-05-07T08:11:43;2.33;;;2.13;;
4290;SDS011;2159;50.906;7.152;2023-05-07T08:14:11;2.90;;;2.17;;
4290;SDS011;2159;50.906;7.152;2023-05-07T08:16:39;2.40;;;2.20;;
4290;SDS011;2159;50.906;7.152;2023-05-07T08:19:07;2.00;;;1.90;;
4290;SDS011;2159;50.906;7.152;2023-05-07T08:21:38;3.00;;;2.00;;
4290;SDS011;2159;50.906;7.152;2023-05-07T08:24:05;1.90;;;1.80;;
4290;SDS011;2159;50.906;7.152;2023-05-07T08:26:33;2.00;;;1.90;;
4290;SDS011;2159;50.906;7.152;2023-05-07T08:29:02;4.43;;;2.20;;
4290;SDS011;2159;50.906;7.152;2023-05-07T08:31:29;2.23;;;2.10;;
4290;SDS011;2159;50.906;7.152;2023-05-07T08:33:59;2.10;;;2.00;;
4290;SDS011;2159;50.906;7.152;2023-05-07T08:36:26;3.13;;;1.90;;
4290;SDS011;2159;50.906;7.152;2023-05-07T08:38:54;2.10;;;2.00;;
4290;SDS011;2159;50.906;7.152;2023-05-07T08:41:22;2.30;;;2.10;;
4290;SDS011;2159;50.906;7.152;2023-05-07T08:43:50;2.70;;;1.90;;
4290;SDS011;2159;50.906;7.152;2023-05-07T08:46:18;6.93;;;2.17;;
4290;SDS011;2159;50.906;7.152;2023-05-07T08:48:47;1.90;;;1.80;;
4290;SDS011;2159;50.906;7.152;2023-05-07T08:51:17;2.10;;;2.00;;
4290;SDS011;2159;50.906;7.152;2023-05-07T08:53:46;2.00;;;1.90;;
4290;SDS011;2159;50.906;7.152;2023-05-07T08:56:14;2.40;;;2.10;;
4290;SDS011;2159;50.906;7.152;2023-05-07T08:58:42;2.40;;;2.30;;
4290;SDS011;2159;50.906;7.152;2023-05-07T09:01:12;2.87;;;2.23;;
4290;SDS011;2159;50.906;7.152;2023-05-07T09:03:40;4.57;;;2.13;;
4290;SDS011;2159;50.906;7.152;2023-05-07T09:06:08;4.87;;;2.17;;
4290;SDS011;2159;50.906;7.152;2023-05-07T09:08:37;2.10;;;2.00;;
4290;SDS011;2159;50.906;7.152;2023-05-07T09:11:05;3.30;;;2.30;;
4290;SDS011;2159;50.906;7.152;2023-05-07T09:13:32;2.63;;;2.43;;
4290;SDS011;2159;50.906;7.152;2023-05-07T09:16:09;2.10;;;2.00;;
4290;SDS011;2159;50.906;7.152;2023-05-07T09:18:40;2.60;;;1.90;;
4290;SDS011;2159;50.906;7.152;2023-05-07T09:21:09;3.73;;;2.03;;
4290;SDS011;2159;50.906;7.152;2023-05-07T09:23:38;2.93;;;2.10;;
4290;SDS011;2159;50.906;7.152;2023-05-07T09:26:06;2.23;;;2.10;;
4290;SDS011;2159;50.906;7.152;2023-05-07T09:28:38;4.70;;;2.27;;
4290;SDS011;2159;50.906;7.152;2023-05-07T09:31:05;2.00;;;1.90;;
4290;SDS011;2159;50.906;7.152;2023-05-07T09:33:33;2.00;;;1.90;;
4290;SDS011;2159;50.906;7.152;2023-05-07T09:36:04;2.60;;;1.90;;
4290;SDS011;2159;50.906;7.152;2023-05-07T09:38:31;2.13;;;2.00;;
4290;SDS011;2159;50.906;7.152;2023-05-07T09:41:04;2.10;;;2.00;;
4290;SDS011;2159;50.906;7.152;2023-05-07T09:43:32;2.33;;;2.20;;
4290;SDS011;2159;50.906;7.152;2023-05-07T09:46:02;2.37;;;1.90;;
4290;SDS011;2159;50.906;7.152;2023-05-07T09:48:30;2.20;;;2.10;;
4290;SDS011;2159;50.906;7.152;2023-05-07T09:51:01;2.00;;;1.90;;
4290;SDS011;2159;50.906;7.152;2023-05-07T09:53:29;1.93;;;1.80;;
4290;SDS011;2159;50.906;7.152;2023-05-07T09:55:57;5.23;;;1.70;;
4290;SDS011;2159;50.906;7.152;2023-05-07T09:58:26;2.30;;;2.20;;
4290;SDS011;2159;50.906;7.152;2023-05-07T10:00:54;2.27;;;2.00;;
4290;SDS011;2159;50.906;7.152;2023-05-07T10:03:23;4.53;;;2.43;;
4290;SDS011;2159;50.906;7.152;2023-05-07T10:05:53;1.90;;;1.80;;
4290;SDS011;2159;50.906;7.152;2023-05-07T10:08:20;2.20;;;2.10;;
4290;SDS011;2159;50.906;7.152;2023-05-07T10:10:48;2.00;;;1.63;;
4290;SDS011;2159;50.906;7.152;2023-05-07T10:13:16;3.67;;;2.20;;
4290;SDS011;2159;50.906;7.152;2023-05-07T10:15:45;2.10;;;2.00;;
4290;SDS011;2159;50.906;7.152;2023-05-07T10:18:14;5.17;;;2.00;;
4290;SDS011;2159;50.906;7.152;2023-05-07T10:20:43;4.10;;;2.20;;
4290;SDS011;2159;50.906;7.152;2023-05-07T10:23:13;2.20;;;2.00;;
4290;SDS011;2159;50.906;7.152;2023-05-07T10:25:40;2.13;;;2.00;;
4290;SDS011;2159;50.906;7.152;2023-05-07T10:28:08;1.90;;;1.80;;
4290;SDS011;2159;50.906;7.152;2023-05-07T10:30:38;2.07;;;1.83;;
4290;SDS011;2159;50.906;7.152;2023-05-07T10:33:09;2.67;;;2.00;;
4290;SDS011;2159;50.906;7.152;2023-05-07T10:35:38;2.90;;;2.17;;
4290;SDS011;2159;50.906;7.152;2023-05-07T10:38:07;2.03;;;1.93;;
4290;SDS011;2159;50.906;7.152;2023-05-07T10:40:35;2.23;;;2.13;;
4290;SDS011;2159;50.906;7.152;2023-05-07T10:43:03;2.30;;;1.90;;
4290;SDS011;2159;50.906;7.152;2023-05-07T10:45:35;2.30;;;2.10;;
4290;SDS011;2159;50.906;7.152;2023-05-07T10:48:11;2.00;;;1.90;;
4290;SDS011;2159;50.906;7.152;2023-05-07T10:53:38;2.67;;;2.17;;
4290;SDS011;2159;50.906;7.152;2023-05-07T10:56:24;1.80;;;1.70;;
4290;SDS011;2159;50.906;7.152;2023-05-07T10:58:53;1.93;;;1.83;;
4290;SDS011;2159;50.906;7.152;2023-05-07T11:04:16;1.87;;;1.77;;
4290;SDS011;2159;50.906;7.152;2023-05-07T11:09:57;2.27;;;2.17;;
4290;SDS011;2159;50.906;7.152;2023-05-07T11:15:13;1.73;;;1.63;;
4290;SDS011;2159;50.906;7.152;2023-05-07T11:17:54;4.40;;;1.73;;
4290;SDS011;2159;50.906;7.152;2023-05-07T11:26:02;2.67;;;1.70;;
4290;SDS011;2159;50.906;7.152;2023-05-07T11:28:30;2.23;;;1.70;;
4290;SDS011;2159;50.906;7.152;2023-05-07T11:30:58;3.10;;;1.83;;
4290;SDS011;2159;50.906;7.152;2023-05-07T11:33:25;2.00;;;1.90;;
4290;SDS011;2159;50.906;7.152;2023-05-07T11:35:53;2.03;;;1.93;;
4290;SDS011;2159;50.906;7.152;2023-05-07T11:38:21;1.83;;;1.73;;
4290;SDS011;2159;50.906;7.152;2023-05-07T11:40:49;1.90;;;1.80;;
4290;SDS011;2159;50.906;7.152;2023-05-07T11:43:18;2.33;;;1.90;;
4290;SDS011;2159;50.906;7.152;2023-05-07T11:45:45;1.80;;;1.70;;
4290;SDS011;2159;50.906;7.152;2023-05-07T11:48:13;2.60;;;2.20;;
4290;SDS011;2159;50.906;7.152;2023-05-07T11:50:49;1.93;;;1.70;;
4290;SDS011;2159;50.906;7.152;2023-05-07T11:53:18;1.90;;;1.80;;
4290;SDS011;2159;50.906;7.152;2023-05-07T11:55:46;1.90;;;1.80;;
4290;SDS011;2159;50.906;7.152;2023-05-07T11:58:18;2.17;;;1.50;;
4290;SDS011;2159;50.906;7.152;2023-05-07T12:00:52;1.93;;;1.83;;
4290;SDS011;2159;50.906;7.152;2023-05-07T12:03:19;4.10;;;1.87;;
4290;SDS011;2159;50.906;7.152;2023-05-07T12:05:47;2.60;;;1.97;;
4290;SDS011;2159;50.906;7.152;2023-05-07T12:08:15;1.87;;;1.80;;
4290;SDS011;2159;50.906;7.152;2023-05-07T12:10:43;2.03;;;1.80;;
4290;SDS011;2159;50.906;7.152;2023-05-07T12:13:14;1.90;;;1.80;;
4290;SDS011;2159;50.906;7.152;2023-05-07T12:15:41;2.20;;;2.10;;
4290;SDS011;2159;50.906;7.152;2023-05-07T12:18:10;4.10;;;1.90;;
4290;SDS011;2159;50.906;7.152;2023-05-07T12:20:38;2.37;;;1.80;;
4290;SDS011;2159;50.906;7.152;2023-05-07T12:23:06;1.77;;;1.67;;
4290;SDS011;2159;50.906;7.152;2023-05-07T12:25:34;2.23;;;2.00;;
4290;SDS011;2159;50.906;7.152;2023-05-07T12:28:01;5.70;;;1.70;;
4290;SDS011;2159;50.906;7.152;2023-05-07T12:30:31;2.63;;;2.20;;
4290;SDS011;2159;50.906;7.152;2023-05-07T12:32:58;1.73;;;1.63;;
4290;SDS011;2159;50.906;7.152;2023-05-07T12:35:28;2.10;;;2.00;;
4290;SDS011;2159;50.906;7.152;2023-05-07T12:37:55;2.07;;;1.90;;
4290;SDS011;2159;50.906;7.152;2023-05-07T12:40:34;2.03;;;1.83;;
4290;SDS011;2159;50.906;7.152;2023-05-07T12:43:02;2.30;;;1.50;;
4290;SDS011;2159;50.906;7.152;2023-05-07T12:45:29;1.90;;;1.80;;
4290;SDS011;2159;50.906;7.152;2023-05-07T12:48:00;1.83;;;1.70;;
4290;SDS011;2159;50.906;7.152;2023-05-07T12:50:32;1.80;;;1.70;;
4290;SDS011;2159;50.906;7.152;2023-05-07T12:53:00;2.53;;;1.90;;
4290;SDS011;2159;50.906;7.152;2023-05-07T12:55:29;3.30;;;1.60;;
4290;SDS011;2159;50.906;7.152;2023-05-07T12:58:00;1.77;;;1.67;;
4290;SDS011;2159;50.906;7.152;2023-05-07T13:00:35;2.90;;;2.00;;
4290;SDS011;2159;50.906;7.152;2023-05-07T13:03:03;2.60;;;2.00;;
4290;SDS011;2159;50.906;7.152;2023-05-07T13:05:32;1.87;;;1.77;;
4290;SDS011;2159;50.906;7.152;2023-05-07T13:07:59;2.37;;;1.70;;
4290;SDS011;2159;50.906;7.152;2023-05-07T13:10:27;1.50;;;1.50;;
4290;SDS011;2159;50.906;7.152;2023-05-07T13:12:54;1.80;;;1.70;;
4290;SDS011;2159;50.906;7.152;2023-05-07T13:15:22;2.77;;;1.70;;
4290;SDS011;2159;50.906;7.152;2023-05-07T13:17:49;1.87;;;1.83;;
4290;SDS011;2159;50.906;7.152;2023-05-07T13:20:17;2.20;;;2.00;;
4290;SDS011;2159;50.906;7.152;2023-05-07T13:22:46;2.83;;;1.97;;
4290;SDS011;2159;50.906;7.152;2023-05-07T13:25:13;3.85;;;1.85;;
4290;SDS011;2159;50.906;7.152;2023-05-07T13:27:41;8.50;;;1.97;;
4290;SDS011;2159;50.906;7.152;2023-05-07T13:30:09;1.90;;;1.80;;
4290;SDS011;2159;50.906;7.152;2023-05-07T13:32:36;7.03;;;2.00;;
4290;SDS011;2159;50.906;7.152;2023-05-07T13:35:04;4.60;;;1.77;;
4290;SDS011;2159;50.906;7.152;2023-05-07T13:37:32;1.67;;;1.57;;
4290;SDS011;2159;50.906;7.152;2023-05-07T13:40:01;3.43;;;1.83;;
4290;SDS011;2159;50.906;7.152;2023-05-07T13:42:28;1.70;;;1.60;;
4290;SDS011;2159;50.906;7.152;2023-05-07T13:44:56;6.33;;;2.00;;
4290;SDS011;2159;50.906;7.152;2023-05-07T13:47:25;2.00;;;1.90;;
4290;SDS011;2159;50.906;7.152;2023-05-07T13:49:52;2.17;;;2.00;;
4290;SDS011;2159;50.906;7.152;2023-05-07T13:52:20;2.00;;;1.90;;
4290;SDS011;2159;50.906;7.152;2023-05-07T13:54:47;1.80;;;1.70;;
4290;SDS011;2159;50.906;7.152;2023-05-07T13:57:16;2.00;;;1.90;;
4290;SDS011;2159;50.906;7.152;2023-05-07T13:59:43;2.13;;;2.00;;
4290;SDS011;2159;50.906;7.152;2023-05-07T14:02:11;1.90;;;1.80;;
4290;SDS011;2159;50.906;7.152;2023-05-07T14:04:38;2.03;;;1.93;;
4290;SDS011;2159;50.906;7.152;2023-05-07T14:07:06;1.93;;;1.83;;
4290;SDS011;2159;50.906;7.152;2023-05-07T14:09:33;2.10;;;2.00;;
4290;SDS011;2159;50.906;7.152;2023-05-07T14:12:00;2.10;;;2.00;;
4290;SDS011;2159;50.906;7.152;2023-05-07T14:14:29;2.10;;;2.00;;
4290;SDS011;2159;50.906;7.152;2023-05-07T14:16:56;4.20;;;1.90;;
4290;SDS011;2159;50.906;7.152;2023-05-07T14:19:24;3.43;;;2.00;;
4290;SDS011;2159;50.906;7.152;2023-05-07T14:21:52;2.27;;;2.07;;
4290;SDS011;2159;50.906;7.152;2023-05-07T14:24:19;2.53;;;2.20;;
4290;SDS011;2159;50.906;7.152;2023-05-07T14:27:02;4.93;;;1.90;;
4290;SDS011;2159;50.906;7.152;2023-05-07T14:29:31;3.73;;;1.87;;
4290;SDS011;2159;50.906;7.152;2023-05-07T14:31:58;2.87;;;2.17;;
4290;SDS011;2159;50.906;7.152;2023-05-07T14:34:26;2.37;;;2.20;;
4290;SDS011;2159;50.906;7.152;2023-05-07T14:36:53;2.00;;;1.80;;
4290;SDS011;2159;50.906;7.152;2023-05-07T14:39:21;2.30;;;2.10;;
4290;SDS011;2159;50.906;7.152;2023-05-07T14:41:48;2.10;;;1.90;;
4290;SDS011;2159;50.906;7.152;2023-05-07T14:44:16;6.03;;;2.30;;
4290;SDS011;2159;50.906;7.152;2023-05-07T14:46:45;2.83;;;2.10;;
4290;SDS011;2159;50.906;7.152;2023-05-07T14:49:13;4.30;;;2.50;;
4290;SDS011;2159;50.906;7.152;2023-05-07T14:51:43;3.33;;;3.03;;
4290;SDS011;2159;50.906;7.152;2023-05-07T14:54:11;2.97;;;2.77;;
4290;SDS011;2159;50.906;7.152;2023-05-07T14:56:39;2.37;;;2.27;;
4290;SDS011;2159;50.906;7.152;2023-05-07T14:59:07;2.80;;;2.13;;
4290;SDS011;2159;50.906;7.152;2023-05-07T15:01:34;2.20;;;2.00;;
4290;SDS011;2159;50.906;7.152;2023-05-07T15:04:03;4.63;;;2.43;;
4290;SDS011;2159;50.906;7.152;2023-05-07T15:06:31;2.43;;;2.10;;
4290;SDS011;2159;50.906;7.152;2023-05-07T15:08:59;2.27;;;2.17;;
4290;SDS011;2159;50.906;7.152;2023-05-07T15:11:27;2.60;;;2.40;;
4290;SDS011;2159;50.906;7.152;2023-05-07T15:13:54;2.83;;;2.37;;
4290;SDS011;2159;50.906;7.152;2023-05-07T15:16:22;2.10;;;1.90;;
4290;SDS011;2159;50.906;7.152;2023-05-07T15:18:49;2.37;;;1.60;;
4290;SDS011;2159;50.906;7.152;2023-05-07T15:21:18;1.63;;;1.53;;
4290;SDS011;2159;50.906;7.152;2023-05-07T15:23:45;1.57;;;1.47;;
4290;SDS011;2159;50.906;7.152;2023-05-07T15:26:13;1.90;;;1.80;;
4290;SDS011;2159;50.906;7.152;2023-05-07T15:28:40;1.33;;;1.30;;
4290;SDS011;2159;50.906;7.152;2023-05-07T15:31:08;1.57;;;1.47;;
4290;SDS011;2159;50.906;7.152;2023-05-07T15:33:35;4.10;;;1.40;;
4290;SDS011;2159;50.906;7.152;2023-05-07T15:36:04;2.70;;;1.50;;
4290;SDS011;2159;50.906;7.152;2023-05-07T15:38:33;5.07;;;1.53;;